Time;durP1;ratioP1;P1;durP2;ratioP2;P2;SDS_P1;SDS_P2;PMS_P1;PMS_P2;Temp;Humidity;BMP_temperature;BMP_pressure;BME280_temperature;BME280_humidity;BME280_pressure;Samples;Min_cycle;Max_cycle;Signal;HPM_P1;HPM_P2
2021/06/05 00:02:24;;;;;;;4.93;2.78;;;;;;;;;;4927449;29;20027;-86
2021/06/05 00:04:53;;;;;;;5.35;3.30;;;;;;;;;;4978014;28;20084;-87
2021/06/05 00:07:19;;;;;;;5.68;3.35;;;;;;;;;;4991226;28;20027;-85
2021/06/05 00:09:45;;;;;;;7.43;3.78;;;;;;;;;;4995426;28;20029;-85
2021/06/05 00:12:13;;;;;;;6.93;3.10;;;;;;;;;;5015205;28;20022;-84
2021/06/05 00:14:39;;;;;;;4.80;3.08;;;;;;;;;;5001253;28;20072;-82
2021/06/05 00:17:05;;;;;;;7.32;3.35;;;;;;;;;;5016789;28;20034;-86
2021/06/05 00:19:31;;;;;;;7.57;3.42;;;;;;;;;;4993903;28;20031;-83
2021/06/05 00:21:57;;;;;;;6.70;3.35;;;;;;;;;;5008852;28;20025;-85
2021/06/05 00:24:23;;;;;;;5.20;2.75;;;;;;;;;;5008671;28;20029;-84
2021/06/05 00:26:50;;;;;;;6.63;3.35;;;;;;;;;;5017129;28;20081;-85
2021/06/05 00:29:17;;;;;;;7.13;3.35;;;;;;;;;;4996751;28;20039;-85
2021/06/05 00:31:43;;;;;;;5.97;3.28;;;;;;;;;;5012303;28;20469;-86
2021/06/05 00:34:09;;;;;;;6.07;3.45;;;;;;;;;;4993957;28;20042;-85
2021/06/05 00:36:35;;;;;;;5.72;3.30;;;;;;;;;;4993106;28;20056;-87
2021/06/05 00:39:01;;;;;;;8.68;2.97;;;;;;;;;;4996664;28;20037;-84
2021/06/05 00:41:28;;;;;;;7.80;3.60;;;;;;;;;;5004504;28;20615;-88
2021/06/05 00:43:56;;;;;;;4.93;3.08;;;;;;;;;;5014344;28;20116;-88
2021/06/05 00:46:24;;;;;;;6.15;3.20;;;;;;;;;;4996218;28;20032;-88
2021/06/05 00:48:50;;;;;;;5.30;3.40;;;;;;;;;;4999739;28;20025;-86
2021/06/05 00:51:20;;;;;;;5.95;3.38;;;;;;;;;;4998726;28;20061;-87
2021/06/05 00:53:46;;;;;;;7.00;3.28;;;;;;;;;;5011211;28;20052;-86
2021/06/05 00:56:13;;;;;;;5.13;3.33;;;;;;;;;;4999014;28;20042;-84
2021/06/05 00:58:39;;;;;;;6.93;3.30;;;;;;;;;;4997062;28;20026;-85
2021/06/05 01:01:26;;;;;;;5.03;3.42;;;;;;;;;;4998212;28;20025;-85
2021/06/05 01:03:53;;;;;;;5.07;3.50;;;18.10;99.90;;;;;;5009715;28;20026;-87
2021/06/05 01:06:24;;;;;;;5.75;3.47;;;18.00;99.90;;;;;;5008737;28;20034;-85
2021/06/05 01:09:13;;;;;;;7.07;4.20;;;18.00;99.90;;;;;;4996086;28;20022;-84
2021/06/05 01:11:42;;;;;;;6.55;4.05;;;;;;;;;;4994664;28;20678;-87
2021/06/05 01:14:35;;;;;;;5.70;3.08;;;18.00;99.90;;;;;;4995674;28;20030;-87
2021/06/05 01:17:06;;;;;;;5.30;3.20;;;18.00;99.90;;;;;;4985494;28;20737;-86
2021/06/05 01:19:41;;;;;;;7.40;3.50;;;;;;;;;;4997685;28;20056;-84
2021/06/05 01:22:19;;;;;;;7.32;3.50;;;18.10;99.90;;;;;;5016396;28;20069;-83
2021/06/05 01:24:48;;;;;;;6.03;3.50;;;;;;;;;;4993795;28;20022;-88
2021/06/05 01:27:33;;;;;;;21.35;5.38;;;18.20;99.90;;;;;;4994175;28;20059;-85
2021/06/05 01:30:01;;;;;;;7.45;4.10;;;;;;;;;;4999001;28;20034;-87
2021/06/05 01:32:28;;;;;;;4.40;3.35;;;;;;;;;;4992973;28;20047;-86
2021/06/05 01:34:56;;;;;;;7.13;3.60;;;18.10;99.90;;;;;;5013326;28;20445;-86
2021/06/05 01:37:23;;;;;;;5.95;3.60;;;;;;;;;;4993714;28;20070;-87
2021/06/05 01:39:50;;;;;;;6.50;3.65;;;;;;;;;;5011216;28;20026;-87
2021/06/05 01:42:24;;;;;;;7.65;3.78;;;;;;;;;;5012979;28;20102;-85
2021/06/05 01:44:55;;;;;;;5.13;3.72;;;;;;;;;;5014840;28;20022;-84
2021/06/05 01:47:20;;;;;;;;;;;;;;;;;;5004680;28;20041;-86
2021/06/05 01:49:47;;;;;;;6.72;3.90;;;;;;;;;;5001405;28;19910;-89
2021/06/05 01:52:22;;;;;;;10.85;5.13;;;;;;;;;;5002483;28;20084;-87
2021/06/05 01:55:07;;;;;;;5.18;3.60;;;18.20;99.90;;;;;;4996051;28;20030;-85
2021/06/05 01:57:34;;;;;;;9.02;4.57;;;;;;;;;;5012009;28;20030;-83
2021/06/05 02:00:01;;;;;;;5.68;3.70;;;;;;;;;;5008324;28;20034;-86
2021/06/05 02:02:27;;;;;;;6.13;3.85;;;;;;;;;;4996376;28;20376;-84
2021/06/05 02:04:54;;;;;;;5.63;3.70;;;;;;;;;;5004676;28;20244;-84
2021/06/05 02:07:20;;;;;;;5.75;3.88;;;;;;;;;;4994734;28;20037;-84
2021/06/05 02:09:46;;;;;;;7.00;4.00;;;;;;;;;;4991361;28;20057;-82
2021/06/05 02:12:21;;;;;;;6.28;3.90;;;;;;;;;;4996086;28;20030;-84
2021/06/05 02:14:59;;;;;;;6.82;3.25;;;;;;;;;;4998646;28;20030;-85
2021/06/05 02:17:26;;;;;;;7.32;3.60;;;;;;;;;;4998713;28;20061;-84
2021/06/05 02:19:54;;;;;;;6.95;3.55;;;;;;;;;;4978549;28;20038;-84
2021/06/05 02:22:22;;;;;;;5.38;3.58;;;;;;;;;;4997114;28;20042;-84
2021/06/05 02:24:50;;;;;;;5.00;3.60;;;;;;;;;;4995210;28;20041;-84
2021/06/05 02:27:17;;;;;;;5.65;3.80;;;;;;;;;;4996449;28;20144;-83
2021/06/05 02:29:44;;;;;;;8.13;4.07;;;17.90;99.90;;;;;;5014197;28;20029;-83
2021/06/05 02:32:15;;;;;;;7.05;3.90;;;;;;;;;;4999616;28;20034;-84
2021/06/05 02:34:42;;;;;;;6.00;3.95;;;;;;;;;;5011518;28;20118;-82
2021/06/05 02:37:09;;;;;;;8.10;3.78;;;;;;;;;;4996335;28;20033;-85
2021/06/05 02:39:36;;;;;;;6.05;3.72;;;;;;;;;;4997204;28;20540;-86
2021/06/05 02:42:02;;;;;;;5.28;3.78;;;;;;;;;;4995057;28;20045;-82
2021/06/05 02:44:30;;;;;;;6.25;3.65;;;;;;;;;;4997659;28;20732;-83
2021/06/05 02:46:57;;;;;;;7.72;3.85;;;;;;;;;;5012966;28;20042;-81
2021/06/05 02:49:33;;;;;;;5.40;3.55;;;18.20;99.90;;;;;;5014678;28;20030;-85
2021/06/05 02:52:10;;;;;;;6.07;3.55;;;;;;;;;;4985958;28;20037;-85
2021/06/05 02:54:39;;;;;;;5.40;3.72;;;;;;;;;;5018168;28;20030;-84
2021/06/05 02:57:06;;;;;;;8.90;3.70;;;;;;;;;;4999930;28;20063;-83
2021/06/05 02:59:33;;;;;;;7.45;3.80;;;;;;;;;;5014100;28;20022;-83
2021/06/05 03:01:59;;;;;;;6.60;3.90;;;;;;;;;;5015809;28;20025;-86
2021/06/05 03:04:25;;;;;;;4.80;3.63;;;;;;;;;;4998899;28;20045;-86
2021/06/05 03:06:52;;;;;;;5.65;3.83;;;;;;;;;;4997175;28;20046;-85
2021/06/05 03:09:19;;;;;;;5.78;4.07;;;;;;;;;;5014823;28;20029;-84
2021/06/05 03:11:46;;;;;;;7.13;4.43;;;;;;;;;;5000690;28;20151;-84
2021/06/05 03:14:13;;;;;;;7.10;4.60;;;;;;;;;;4997256;28;20037;-85
2021/06/05 03:16:39;;;;;;;6.40;4.32;;;;;;;;;;5000518;28;20033;-84
2021/06/05 03:19:05;;;;;;;5.20;3.80;;;;;;;;;;4993987;28;20046;-84
2021/06/05 03:21:32;;;;;;;8.07;4.43;;;;;;;;;;5015237;28;20091;-85
2021/06/05 03:23:58;;;;;;;7.35;4.38;;;;;;;;;;5002868;28;20030;-85
2021/06/05 03:26:24;;;;;;;10.70;4.60;;;;;;;;;;4998835;28;20065;-84
2021/06/05 03:28:50;;;;;;;8.32;4.82;;;;;;;;;;5015484;28;20595;-85
2021/06/05 03:31:19;;;;;;;8.43;4.95;;;;;;;;;;5011753;28;20021;-83
2021/06/05 03:33:45;;;;;;;8.27;4.95;;;;;;;;;;5013684;28;20060;-83
2021/06/05 03:36:12;;;;;;;8.00;4.60;;;;;;;;;;5013588;28;20057;-86
2021/06/05 03:38:41;;;;;;;9.45;5.13;;;;;;;;;;5012468;28;20025;-83
2021/06/05 03:41:07;;;;;;;7.30;4.38;;;;;;;;;;4997524;28;20022;-83
2021/06/05 03:43:33;;;;;;;5.88;3.88;;;;;;;;;;5021434;28;20030;-84
2021/06/05 03:45:59;;;;;;;7.00;4.22;;;;;;;;;;5004294;28;20026;-85
2021/06/05 03:48:25;;;;;;;7.15;3.83;;;;;;;;;;5003614;28;20049;-84
2021/06/05 03:50:53;;;;;;;5.05;3.83;;;;;;;;;;5004653;28;20133;-83
2021/06/05 03:53:21;;;;;;;13.20;8.77;;;;;;;;;;5003394;28;20037;-86
2021/06/05 03:55:47;;;;;;;6.03;3.60;;;;;;;;;;5002324;28;20048;-83
2021/06/05 03:58:14;;;;;;;9.98;4.53;;;;;;;;;;5004894;28;20033;-85
2021/06/05 04:00:42;;;;;;;9.05;5.07;;;;;;;;;;4997041;28;20022;-85
2021/06/05 04:03:08;;;;;;;7.85;4.32;;;;;;;;;;5014412;28;20029;-85
2021/06/05 04:05:35;;;;;;;8.23;4.90;;;;;;;;;;4999504;28;20101;-85
2021/06/05 04:08:01;;;;;;;7.38;5.18;;;;;;;;;;4999866;28;20026;-86
2021/06/05 04:10:28;;;;;;;9.88;5.00;;;;;;;;;;4999112;28;20057;-85
2021/06/05 04:12:55;;;;;;;7.07;4.32;;;;;;;;;;5013326;28;20038;-86
2021/06/05 04:15:24;;;;;;;6.85;4.40;;;;;;;;;;4997307;28;20318;-85
2021/06/05 04:17:59;;;;;;;8.52;5.40;;;;;;;;;;5011818;28;20033;-85
2021/06/05 04:20:25;;;;;;;8.73;5.38;;;;;;;;;;4998332;28;20034;-85
2021/06/05 04:22:52;;;;;;;10.27;4.93;;;;;;;;;;5016710;28;20022;-86
2021/06/05 04:25:18;;;;;;;11.25;6.07;;;;;;;;;;5001069;28;20097;-83
2021/06/05 04:27:44;;;;;;;9.15;5.68;;;;;;;;;;5018987;28;20034;-83
2021/06/05 04:30:11;;;;;;;8.57;5.43;;;;;;;;;;5000714;28;20041;-82
2021/06/05 04:32:38;;;;;;;8.25;5.30;;;;;;;;;;5018993;28;20176;-84
2021/06/05 04:35:06;;;;;;;8.23;4.95;;;18.40;99.90;;;;;;4998369;28;20787;-84
2021/06/05 04:37:32;;;;;;;10.13;5.15;;;;;;;;;;5016103;28;20036;-82
2021/06/05 04:39:58;;;;;;;9.25;5.50;;;;;;;;;;5013933;28;20453;-83
2021/06/05 04:42:24;;;;;;;9.07;5.50;;;;;;;;;;5012567;28;20030;-84
2021/06/05 04:44:53;;;;;;;9.98;5.88;;;;;;;;;;5014708;28;20026;-82
2021/06/05 04:47:19;;;;;;;10.43;6.25;;;;;;;;;;5013866;28;20030;-84
2021/06/05 04:49:45;;;;;;;11.85;6.55;;;;;;;;;;5007961;28;20034;-85
2021/06/05 04:52:12;;;;;;;9.20;5.97;;;;;;;;;;4997351;28;20026;-84
2021/06/05 04:54:38;;;;;;;14.13;7.80;;;;;;;;;;5015961;28;20030;-84
2021/06/05 04:57:04;;;;;;;13.48;8.65;;;;;;;;;;4997576;28;20040;-83
2021/06/05 04:59:30;;;;;;;10.68;7.40;;;;;;;;;;5012127;28;20040;-87
2021/06/05 05:01:56;;;;;;;9.63;7.25;;;;;;;;;;4993634;28;20022;-83
2021/06/05 05:04:23;;;;;;;11.93;7.45;;;;;;;;;;4991881;28;20076;-84
2021/06/05 05:06:49;;;;;;;13.20;7.95;;;;;;;;;;5013561;28;20038;-85
2021/06/05 05:09:18;;;;;;;12.70;7.68;;;18.50;99.90;;;;;;4995558;28;20391;-87
2021/06/05 05:11:47;;;;;;;11.77;8.30;;;;;;;;;;5003439;28;20038;-86
2021/06/05 05:14:13;;;;;;;10.30;7.13;;;;;;;;;;5013843;28;20014;-87
2021/06/05 05:16:39;;;;;;;12.57;8.00;;;;;;;;;;5013605;28;20050;-85
2021/06/05 05:19:05;;;;;;;9.55;6.82;;;;;;;;;;5021124;28;20025;-84
2021/06/05 05:21:32;;;;;;;10.95;7.80;;;;;;;;;;5003613;28;20038;-81
2021/06/05 05:23:58;;;;;;;11.93;7.78;;;;;;;;;;5003426;28;20045;-83
2021/06/05 05:26:24;;;;;;;10.88;7.38;;;;;;;;;;5004198;28;20072;-84
2021/06/05 05:28:53;;;;;;;11.57;7.70;;;;;;;;;;5004899;28;20022;-85
2021/06/05 05:31:27;;;;;;;12.40;7.80;;;18.40;99.90;;;;;;5004426;28;20022;-84
2021/06/05 05:33:55;;;;;;;11.18;7.30;;;;;;;;;;5001366;28;20030;-83
2021/06/05 05:36:41;;;;;;;11.60;7.18;;;;;;;;;;5019337;28;20037;-87
2021/06/05 05:39:09;;;;;;;13.65;8.30;;;;;;;;;;4999302;28;20031;-85
2021/06/05 05:41:35;;;;;;;12.43;8.38;;;;;;;;;;5003026;28;20037;-85
2021/06/05 05:44:01;;;;;;;13.57;7.95;;;;;;;;;;5016296;28;20044;-86
2021/06/05 05:46:28;;;;;;;11.45;7.90;;;;;;;;;;5004127;28;20098;-85
2021/06/05 05:48:54;;;;;;;11.93;8.00;;;;;;;;;;5018980;28;20042;-85
2021/06/05 05:51:22;;;;;;;13.20;8.52;;;;;;;;;;5022578;28;20032;-85
2021/06/05 05:53:48;;;;;;;10.50;7.45;;;;;;;;;;5012841;28;20022;-85
2021/06/05 05:56:15;;;;;;;11.80;7.25;;;;;;;;;;4996062;28;20494;-85
2021/06/05 05:58:44;;;;;;;11.32;7.90;;;18.40;99.90;;;;;;4998873;28;20228;-86
2021/06/05 06:01:14;;;;;;;10.32;7.53;;;;;;;;;;4999902;28;20026;-84
2021/06/05 06:03:40;;;;;;;9.70;6.82;;;;;;;;;;5003092;28;20489;-85
2021/06/05 06:06:07;;;;;;;12.15;7.88;;;;;;;;;;5019394;28;20069;-86
2021/06/05 06:08:34;;;;;;;10.93;7.07;;;;;;;;;;5017196;28;20025;-84
2021/06/05 06:11:00;;;;;;;10.23;7.32;;;;;;;;;;4998852;28;20026;-83
2021/06/05 06:13:26;;;;;;;12.50;7.47;;;;;;;;;;5016973;28;20030;-85
2021/06/05 06:15:52;;;;;;;12.13;7.68;;;;;;;;;;5020554;28;20045;-85
2021/06/05 06:18:19;;;;;;;10.57;7.07;;;;;;;;;;5000192;28;20034;-85
2021/06/05 06:20:47;;;;;;;11.35;7.15;;;;;;;;;;5019981;28;20022;-86
2021/06/05 06:23:18;;;;;;;12.65;6.88;;;;;;;;;;4997778;28;20481;-84
2021/06/05 06:25:44;;;;;;;10.93;6.88;;;;;;;;;;5013029;28;20149;-84
2021/06/05 06:28:11;;;;;;;9.00;6.72;;;;;;;;;;4999614;28;20030;-85
2021/06/05 06:30:39;;;;;;;11.57;7.60;;;18.60;99.90;;;;;;4992374;28;20465;-84
2021/06/05 06:33:07;;;;;;;10.18;7.07;;;;;;;;;;4994745;28;20094;-84
2021/06/05 06:35:34;;;;;;;11.05;8.50;;;;;;;;;;5015961;28;20041;-80
2021/06/05 06:38:01;;;;;;;11.13;7.72;;;;;;;;;;5000508;28;20056;-85
2021/06/05 06:40:29;;;;;;;10.82;7.07;;;;;;;;;;5015295;28;20049;-86
2021/06/05 06:42:55;;;;;;;12.40;7.93;;;;;;;;;;5009842;28;20022;-82
2021/06/05 06:45:21;;;;;;;10.45;6.78;;;;;;;;;;5001961;28;20026;-85
2021/06/05 06:47:49;;;;;;;10.63;7.40;;;18.80;99.90;;;;;;4993774;28;20065;-84
2021/06/05 06:50:17;;;;;;;9.88;7.03;;;18.80;99.90;;;;;;5016596;28;20097;-83
2021/06/05 06:52:43;;;;;;;9.07;6.97;;;;;;;;;;5013610;28;20026;-84
2021/06/05 06:55:09;;;;;;;10.15;6.85;;;;;;;;;;5007650;28;20034;-82
2021/06/05 06:57:35;;;;;;;9.93;6.60;;;;;;;;;;5014143;28;20029;-86
2021/06/05 07:00:01;;;;;;;9.63;6.63;;;;;;;;;;5006472;28;20026;-82
2021/06/05 07:02:27;;;;;;;10.77;7.00;;;;;;;;;;4996690;28;20018;-84
2021/06/05 07:04:54;;;;;;;12.75;7.38;;;;;;;;;;5009937;28;20138;-85
2021/06/05 07:07:20;;;;;;;10.75;7.60;;;;;;;;;;5000459;28;20037;-84
2021/06/05 07:09:46;;;;;;;12.23;7.57;;;;;;;;;;4998134;28;20022;-81
2021/06/05 07:12:16;;;;;;;9.50;7.18;;;;;;;;;;5017119;28;20060;-85
2021/06/05 07:14:42;;;;;;;13.27;8.00;;;;;;;;;;5012149;28;20029;-83
2021/06/05 07:17:08;;;;;;;9.02;6.30;;;;;;;;;;4998292;28;20034;-84
2021/06/05 07:19:34;;;;;;;10.52;7.25;;;;;;;;;;5011284;28;20027;-84
2021/06/05 07:22:03;;;;;;;13.27;7.75;;;;;;;;;;4996284;28;20373;-85
2021/06/05 07:24:30;;;;;;;12.20;7.10;;;19.10;99.90;;;;;;5021654;28;20018;-84
2021/06/05 07:26:56;;;;;;;16.67;8.32;;;;;;;;;;4995009;28;20026;-84
2021/06/05 07:29:22;;;;;;;12.00;7.28;;;;;;;;;;5016333;28;20098;-86
2021/06/05 07:31:51;;;;;;;12.75;8.93;;;;;;;;;;4996855;28;20034;-83
2021/06/05 07:34:21;;;;;;;12.70;8.77;;;;;;;;;;5012989;28;20644;-86
2021/06/05 07:36:48;;;;;;;10.55;7.15;;;;;;;;;;5010569;28;20045;-85
2021/06/05 07:39:16;;;;;;;12.18;7.47;;;;;;;;;;4992289;28;20080;-84
2021/06/05 07:41:42;;;;;;;11.25;7.88;;;;;;;;;;4999331;28;20144;-84
2021/06/05 07:44:09;;;;;;;12.18;8.10;;;;;;;;;;5010775;28;20038;-84
2021/06/05 07:46:39;;;;;;;11.10;7.65;;;;;;;;;;4985697;28;20519;-81
2021/06/05 07:49:05;;;;;;;13.23;8.63;;;;;;;;;;4994482;28;20030;-83
2021/06/05 07:51:31;;;;;;;14.50;9.45;;;;;;;;;;5011926;28;20034;-85
2021/06/05 07:53:59;;;;;;;12.32;8.95;;;;;;;;;;4998903;28;20030;-84
2021/06/05 07:56:25;;;;;;;12.52;8.95;;;;;;;;;;5012586;28;20077;-85
2021/06/05 07:58:52;;;;;;;12.15;8.23;;;;;;;;;;4997188;28;20026;-85
2021/06/05 08:01:18;;;;;;;12.70;9.48;;;;;;;;;;4997746;28;20027;-82
2021/06/05 08:03:44;;;;;;;12.23;9.05;;;;;;;;;;5014473;28;20112;-86
2021/06/05 08:06:10;;;;;;;12.40;9.30;;;;;;;;;;5015741;28;20040;-86
2021/06/05 08:08:36;;;;;;;15.23;9.77;;;;;;;;;;5012092;28;20041;-83
2021/06/05 08:11:02;;;;;;;13.45;9.65;;;;;;;;;;4991786;28;20098;-82
2021/06/05 08:13:29;;;;;;;13.60;9.23;;;;;;;;;;5009551;28;20034;-85
2021/06/05 08:15:55;;;;;;;16.73;10.15;;;;;;;;;;4995031;28;20034;-84
2021/06/05 08:18:21;;;;;;;18.95;11.00;;;;;;;;;;4994704;28;20025;-84
2021/06/05 08:20:52;;;;;;;15.95;10.18;;;;;;;;;;4993188;28;20026;-84
2021/06/05 08:23:19;;;;;;;14.98;9.90;;;;;;;;;;4991166;28;20022;-85
2021/06/05 08:25:45;;;;;;;18.48;10.38;;;;;;;;;;5010731;28;20033;-84
2021/06/05 08:28:12;;;;;;;15.88;9.90;;;19.90;99.90;;;;;;4998790;28;20068;-83
2021/06/05 08:30:41;;;;;;;16.05;9.98;;;20.00;99.90;;;;;;4993646;28;20030;-83
2021/06/05 08:33:08;;;;;;;13.20;9.20;;;;;;;;;;5007208;28;20052;-84
2021/06/05 08:35:34;;;;;;;13.68;9.07;;;20.30;99.90;;;;;;4987287;28;20040;-81
2021/06/05 08:38:00;;;;;;;8.88;6.85;;;;;;;;;;4994968;28;20032;-84
2021/06/05 08:40:38;;;;;;;9.90;6.82;;;;;;;;;;4993309;28;20038;-83
2021/06/05 08:43:04;;;;;;;10.00;6.90;;;;;;;;;;5001118;28;20076;-83
2021/06/05 08:45:31;;;;;;;11.23;7.70;;;;;;;;;;4998741;28;20037;-86
2021/06/05 08:47:58;;;;;;;10.82;7.55;;;;;;;;;;4999850;28;20030;-85
2021/06/05 08:50:28;;;;;;;10.10;6.82;;;;;;;;;;4994693;28;20052;-84
2021/06/05 08:56:06;;;;;;;10.93;7.70;;;;;;;;;;5010118;28;19925;-81
2021/06/05 08:58:45;;;;;;;11.18;7.45;;;20.60;99.90;;;;;;5016976;28;20026;-84
2021/06/05 09:01:14;;;;;;;10.27;6.25;;;;;;;;;;5003164;28;20046;-81
2021/06/05 09:03:40;;;;;;;9.32;6.57;;;;;;;;;;5016918;28;20021;-82
2021/06/05 09:06:16;;;;;;;8.77;7.10;;;20.30;99.90;;;;;;5000712;28;20064;-84
2021/06/05 09:08:42;;;;;;;8.80;7.30;;;;;;;;;;4998985;28;20034;-85
2021/06/05 09:11:08;;;;;;;9.90;7.10;;;;;;;;;;5001457;28;20029;-82
2021/06/05 09:13:34;;;;;;;9.52;6.95;;;;;;;;;;5015046;28;20038;-83
2021/06/05 09:16:19;;;;;;;11.57;6.68;;;20.30;99.90;;;;;;4994613;28;20040;-83
2021/06/05 09:18:50;;;;;;;7.80;6.20;;;20.30;99.90;;;;;;5003218;28;20029;-83
2021/06/05 09:21:24;;;;;;;7.82;6.18;;;;;;;;;;5000683;28;20026;-82
2021/06/05 09:23:50;;;;;;;9.55;6.93;;;;;;;;;;4998982;28;20028;-82
2021/06/05 09:26:28;;;;;;;7.65;5.55;;;20.20;99.90;;;;;;5015825;28;20050;-83
2021/06/05 09:29:14;;;;;;;8.13;5.72;;;20.30;99.90;;;;;;4993311;28;20034;-84
2021/06/05 09:31:54;;;;;;;11.65;7.63;;;20.30;99.90;;;;;;4997418;28;20093;-84
2021/06/05 09:34:21;;;;;;;;;;;20.30;99.90;;;;;;4998465;28;20119;-84
2021/06/05 09:36:47;;;;;;;11.60;9.02;;;;;;;;;;5013984;28;19913;-82
2021/06/05 09:39:16;;;;;;;12.95;8.65;;;;;;;;;;5000285;28;20026;-84
2021/06/05 09:45:31;;;;;;;12.82;9.15;;;;;;;;;;4944874;29;20055;-87
2021/06/05 10:09:47;;;;;;;;;;;;;;;;;;;;;
2021/06/05 10:23:18;;;;;;;16.30;10.98;;;19.90;99.90;;;;;;4957091;28;20031;-85
2021/06/05 10:38:37;;;;;;;14.43;10.07;;;20.30;99.90;;;;;;5019264;28;20038;-86
2021/06/05 10:41:04;;;;;;;11.95;8.43;;;;;;;;;;5008930;28;20033;-85
2021/06/05 10:43:30;;;;;;;12.15;9.20;;;;;;;;;;5027054;28;20026;-87
2021/06/05 10:45:58;;;;;;;13.15;9.27;;;;;;;;;;5028003;28;20104;-86
2021/06/05 10:48:36;;;;;;;13.70;10.18;;;20.30;99.90;;;;;;5032435;28;20107;-87
2021/06/05 10:51:02;;;;;;;13.43;10.23;;;;;;;;;;5029965;28;20033;-85
2021/06/05 10:53:35;;;;;;;16.67;10.38;;;20.10;99.90;;;;;;5023786;28;20077;-88
2021/06/05 10:56:13;;;;;;;16.15;11.50;;;20.10;99.90;;;;;;5044817;28;20025;-86
2021/06/05 10:58:42;;;;;;;16.50;11.50;;;;;;;;;;5028643;28;20064;-88
2021/06/05 11:01:13;;;;;;;15.67;10.47;;;20.00;99.90;;;;;;5026912;28;20025;-82
2021/06/05 11:03:39;;;;;;;12.30;9.25;;;;;;;;;;5029241;28;20029;-84
2021/06/05 11:06:11;;;;;;;14.32;9.95;;;19.90;99.90;;;;;;5031102;28;20034;-86
2021/06/05 11:08:48;;;;;;;13.48;9.90;;;19.90;99.90;;;;;;5031247;28;20074;-85
2021/06/05 11:11:33;;;;;;;15.70;10.38;;;;;;;;;;5047337;28;20031;-82
2021/06/05 11:14:01;;;;;;;13.98;10.15;;;19.90;99.90;;;;;;5029282;28;20037;-83
2021/06/05 11:16:58;;;;;;;15.68;11.55;;;20.00;99.90;;;;;;5029549;28;20033;-82
2021/06/05 11:19:44;;;;;;;15.10;10.82;;;20.10;99.90;;;;;;5023417;28;20781;-80
2021/06/05 11:22:15;;;;;;;14.77;10.70;;;20.20;99.90;;;;;;5028471;28;20026;-86
2021/06/05 11:24:45;;;;;;;13.38;9.63;;;20.30;99.90;;;;;;5043399;28;20098;-83
2021/06/05 11:27:39;;;;;;;14.50;10.27;;;20.30;99.90;;;;;;5029797;28;20110;-81
2021/06/05 11:30:25;;;;;;;16.92;11.43;;;20.00;99.90;;;;;;5033047;28;20033;-81
2021/06/05 11:32:58;;;;;;;17.23;11.65;;;20.00;99.90;;;;;;5033738;28;20208;-81
2021/06/05 11:35:36;;;;;;;15.20;10.52;;;20.00;99.90;;;;;;5028610;28;20057;-85
2021/06/05 11:38:11;;;;;;;15.13;10.20;;;19.70;99.90;;;;;;5027426;28;20085;-88
2021/06/05 11:40:50;;;;;;;14.80;9.20;;;;;;;;;;5035965;28;20040;-88
2021/06/05 11:43:28;;;;;;;12.98;8.13;;;19.60;99.90;;;;;;5022487;28;20029;-82
2021/06/05 11:46:08;;;;;;;11.90;7.40;;;19.40;99.90;;;;;;5034093;28;20112;-86
2021/06/05 11:48:52;;;;;;;;;;;19.40;99.90;;;;;;5037434;28;20036;-85
2021/06/05 11:51:21;;;;;;;8.00;5.72;;;19.40;99.90;;;;;;5038647;28;20251;-85
2021/06/05 11:53:54;;;;;;;8.07;5.72;;;19.40;99.90;;;;;;5037486;28;20032;-87
2021/06/05 11:56:25;;;;;;;8.30;6.13;;;19.30;99.90;;;;;;5037033;28;20029;-86
2021/06/05 11:58:52;;;;;;;7.75;5.72;;;19.10;99.90;;;;;;5037064;28;20079;-87
2021/06/05 12:01:29;;;;;;;9.50;6.32;;;19.10;99.90;;;;;;5036896;28;20017;-85
2021/06/05 12:04:00;;;;;;;9.43;6.28;;;19.10;99.90;;;;;;5037127;28;20033;-85
2021/06/05 12:06:26;;;;;;;10.45;6.78;;;;;;;;;;5035870;28;20069;-86
2021/06/05 12:09:11;;;;;;;10.27;5.10;;;19.10;99.90;;;;;;5030733;28;20041;-83
2021/06/05 12:11:41;;;;;;;6.53;4.32;;;19.00;99.90;;;;;;5031748;28;20304;-86
2021/06/05 12:14:17;;;;;;;7.65;4.72;;;19.10;99.90;;;;;;5022148;28;20064;-84
2021/06/05 12:16:51;;;;;;;7.68;4.55;;;19.10;99.90;;;;;;5027549;28;20475;-84
2021/06/05 12:19:17;;;;;;;6.68;4.55;;;;;;;;;;5025720;28;20036;-85
2021/06/05 12:21:44;;;;;;;7.03;4.45;;;;;;;;;;5026126;28;20085;-87
2021/06/05 12:24:22;;;;;;;5.80;4.47;;;19.30;99.90;;;;;;5014988;28;20113;-84
2021/06/05 12:26:57;;;;;;;5.95;4.63;;;19.20;99.90;;;;;;5015856;28;20399;-82
2021/06/05 12:29:31;;;;;;;5.38;3.83;;;19.30;99.90;;;;;;5013407;28;20025;-86
2021/06/05 12:31:58;;;;;;;5.07;4.00;;;;;;;;;;5013125;28;20026;-85
2021/06/05 12:34:32;;;;;;;6.53;4.95;;;;;;;;;;5020890;28;20022;-86
2021/06/05 12:37:01;;;;;;;7.22;5.18;;;19.50;99.90;;;;;;5030196;28;20157;-83
2021/06/05 12:39:59;;;;;;;6.97;4.55;;;19.40;99.90;;;;;;5031133;28;20216;-84
2021/06/05 12:42:25;;;;;;;6.47;4.72;;;;;;;;;;5028254;28;20104;-85
2021/06/05 12:44:54;;;;;;;6.30;4.55;;;19.60;99.90;;;;;;5026728;28;20057;-84
2021/06/05 12:47:31;;;;;;;4.53;3.67;;;;;;;;;;5020666;28;20403;-84
2021/06/05 12:49:58;;;;;;;4.18;3.05;;;19.60;99.90;;;;;;5025477;28;20104;-85
2021/06/05 12:52:28;;;;;;;4.78;3.25;;;19.60;99.90;;;;;;5030502;28;20029;-86
2021/06/05 12:55:14;;;;;;;;;;;19.60;99.90;;;;;;5028395;28;20029;-85
2021/06/05 12:57:46;;;;;;;5.28;3.80;;;19.60;99.90;;;;;;5016172;28;19939;-85
2021/06/05 13:00:32;;;;;;;5.80;3.95;;;19.60;99.90;;;;;;5026048;28;20031;-85
2021/06/05 13:03:19;;;;;;;5.80;3.88;;;;;;;;;;5041485;28;20092;-83
2021/06/05 13:06:07;;;;;;;5.70;4.30;;;19.60;99.90;;;;;;5037604;28;20818;-83
2021/06/05 13:08:37;;;;;;;6.97;4.72;;;19.60;99.90;;;;;;5029679;28;20038;-86
2021/06/05 13:11:05;;;;;;;11.13;5.85;;;19.60;99.90;;;;;;5025356;28;20026;-85
2021/06/05 13:13:33;;;;;;;10.25;6.50;;;19.60;99.90;;;;;;5021879;28;20030;-84
2021/06/05 13:16:19;;;;;;;9.00;6.55;;;;;;;;;;5035858;28;20045;-82
2021/06/05 13:18:50;;;;;;;10.55;6.50;;;19.60;99.90;;;;;;5017457;28;20064;-83
2021/06/05 13:21:16;;;;;;;10.30;6.40;;;;;;;;;;5019885;28;20121;-82
2021/06/05 13:23:44;;;;;;;12.23;7.50;;;19.50;99.90;;;;;;5034544;28;20517;-85
2021/06/05 13:26:35;;;;;;;11.05;7.22;;;19.40;99.90;;;;;;5038827;28;20552;-85
2021/06/05 13:29:29;;;;;;;9.07;6.65;;;19.40;99.90;;;;;;5026788;28;20033;-86
2021/06/05 13:32:03;;;;;;;10.32;6.20;;;19.30;99.90;;;;;;5039604;28;20084;-86
2021/06/05 13:34:38;;;;;;;8.27;6.18;;;19.30;99.90;;;;;;5033447;28;20036;-86
2021/06/05 13:37:11;;;;;;;9.45;5.88;;;;;;;;;;5023142;28;20033;-84
2021/06/05 13:39:37;;;;;;;9.38;5.78;;;;;;;;;;5041828;28;20022;-87
2021/06/05 13:42:03;;;;;;;9.68;6.05;;;;;;;;;;5026316;28;20364;-85
2021/06/05 13:44:29;;;;;;;11.52;6.82;;;;;;;;;;5026606;28;20030;-86
2021/06/05 13:46:55;;;;;;;10.70;6.13;;;;;;;;;;5038286;28;20032;-86
2021/06/05 13:49:21;;;;;;;7.88;5.10;;;;;;;;;;5024017;28;20034;-84
2021/06/05 13:51:47;;;;;;;7.30;5.53;;;;;;;;;;5037592;28;20025;-87
2021/06/05 13:54:13;;;;;;;9.88;6.28;;;;;;;;;;5038844;28;20029;-83
2021/06/05 13:56:39;;;;;;;5.70;4.38;;;;;;;;;;5038755;28;20142;-87
2021/06/05 13:59:06;;;;;;;5.55;4.15;;;;;;;;;;5026135;28;20026;-87
2021/06/05 14:01:33;;;;;;;5.88;4.18;;;;;;;;;;5019483;28;20129;-83
2021/06/05 14:03:59;;;;;;;5.68;4.53;;;;;;;;;;5022481;28;20036;-85
2021/06/05 14:06:26;;;;;;;8.43;4.20;;;;;;;;;;5042436;28;20053;-85
2021/06/05 14:08:52;;;;;;;7.82;3.90;;;;;;;;;;5042613;28;20056;-83
2021/06/05 14:11:21;;;;;;;6.70;3.97;;;;;;;;;;5045158;28;20096;-84
2021/06/05 14:14:25;;;;;;;6.60;4.68;;;;;;;;;;5040914;28;20082;-85
2021/06/05 14:16:41;;;;;;;6.85;4.78;;;;;;;;;;5022446;28;20042;-85
2021/06/05 14:19:07;;;;;;;6.53;4.47;;;;;;;;;;5032665;28;20399;-86
2021/06/05 14:21:34;;;;;;;7.43;5.00;;;;;;;;;;5038050;28;20037;-85
2021/06/05 14:24:00;;;;;;;5.80;4.18;;;;;;;;;;5021090;28;20022;-87
2021/06/05 14:26:26;;;;;;;10.05;5.75;;;;;;;;;;5019713;28;20093;-87
2021/06/05 14:28:58;;;;;;;9.15;5.63;;;;;;;;;;5018836;28;20476;-83
2021/06/05 14:31:25;;;;;;;9.70;6.32;;;;;;;;;;5020117;28;20026;-84
2021/06/05 14:33:53;;;;;;;9.13;6.13;;;;;;;;;;5036868;28;20030;-86
2021/06/05 14:36:23;;;;;;;8.65;5.28;;;;;;;;;;5036925;28;20125;-84
2021/06/05 14:38:49;;;;;;;10.65;5.78;;;;;;;;;;5030646;28;20036;-84
2021/06/05 14:41:15;;;;;;;10.48;5.35;;;;;;;;;;5026750;28;20391;-86
2021/06/05 14:43:42;;;;;;;10.93;6.20;;;;;;;;;;5026320;28;20021;-84
2021/06/05 14:46:10;;;;;;;9.15;5.93;;;;;;;;;;5036123;28;20030;-86
2021/06/05 14:48:39;;;;;;;9.98;7.18;;;;;;;;;;5019752;28;20429;-85
2021/06/05 14:51:06;;;;;;;10.00;6.80;;;;;;;;;;5016393;28;20080;-87
2021/06/05 14:53:32;;;;;;;10.60;6.45;;;;;;;;;;5016801;28;20022;-87
2021/06/05 14:55:59;;;;;;;11.02;7.38;;;;;;;;;;5016855;28;20041;-85
2021/06/05 14:58:26;;;;;;;14.77;8.90;;;;;;;;;;5027725;28;20022;-85
2021/06/05 15:00:52;;;;;;;12.10;7.20;;;;;;;;;;5036374;28;20018;-88
2021/06/05 15:03:19;;;;;;;12.52;7.90;;;;;;;;;;5038463;28;20163;-85
2021/06/05 15:05:45;;;;;;;12.38;7.68;;;;;;;;;;5037403;28;20026;-85
2021/06/05 15:08:11;;;;;;;12.85;7.95;;;;;;;;;;5036945;28;20383;-84
2021/06/05 15:10:37;;;;;;;12.05;7.25;;;;;;;;;;5037619;28;20022;-86
2021/06/05 15:13:03;;;;;;;14.23;7.97;;;20.10;99.90;;;;;;5037417;28;20026;-84